Time;durP1;ratioP1;P1;durP2;ratioP2;P2;SDS_P1;SDS_P2;PMS_P1;PMS_P2;Temp;Humidity;BMP_temperature;BMP_pressure;BME280_temperature;BME280_humidity;BME280_pressure;Samples;Min_cycle;Max_cycle;Signal;HPM_P1;HPM_P2
2021/03/24 00:01:56;;;;;;;8.33;7.43;;;5.50;68.60;;;;;;5052201;28;20212;-89
2021/03/24 00:04:22;;;;;;;9.03;8.23;;;5.50;68.70;;;;;;5043736;28;20214;-89
2021/03/24 00:06:48;;;;;;;11.70;10.00;;;5.50;68.50;;;;;;5050353;28;20212;-89
2021/03/24 00:09:16;;;;;;;10.87;9.57;;;5.50;69.00;;;;;;5055838;28;20181;-88
2021/03/24 00:11:42;;;;;;;11.47;9.60;;;5.60;69.20;;;;;;5055773;28;20249;-89
2021/03/24 00:14:08;;;;;;;9.70;8.53;;;5.70;68.90;;;;;;5054275;28;20176;-89
2021/03/24 00:16:33;;;;;;;9.57;8.67;;;5.50;68.40;;;;;;5053778;28;20271;-89
2021/03/24 00:18:59;;;;;;;10.87;9.67;;;5.50;69.20;;;;;;5055849;28;20176;-89
2021/03/24 00:21:25;;;;;;;13.10;10.00;;;5.50;69.00;;;;;;5055850;28;20200;-89
2021/03/24 00:23:50;;;;;;;11.67;9.43;;;5.50;68.60;;;;;;5040604;28;20671;-88
2021/03/24 00:26:16;;;;;;;10.37;9.27;;;5.40;68.40;;;;;;5050069;28;20636;-88
2021/03/24 00:28:42;;;;;;;10.13;8.87;;;5.30;69.60;;;;;;5041230;28;20177;-88
2021/03/24 00:31:08;;;;;;;8.83;7.97;;;5.30;69.50;;;;;;5034052;28;20196;-89
2021/03/24 00:33:33;;;;;;;9.77;8.60;;;5.20;69.70;;;;;;5035679;28;20181;-89
2021/03/24 00:35:59;;;;;;;9.03;8.13;;;5.20;68.50;;;;;;5046023;28;20181;-88
2021/03/24 00:38:25;;;;;;;8.90;7.97;;;5.10;70.00;;;;;;5052353;28;20192;-88
2021/03/24 00:40:54;;;;;;;8.90;8.00;;;5.10;70.50;;;;;;5044914;28;20212;-89
2021/03/24 00:43:20;;;;;;;8.83;7.93;;;5.10;70.20;;;;;;5044205;28;20641;-89
2021/03/24 00:45:45;;;;;;;8.30;7.47;;;5.20;69.60;;;;;;5044296;28;20207;-89
2021/03/24 00:48:30;;;;;;;8.67;7.77;;;5.20;69.50;;;;;;5044935;28;20247;-89
2021/03/24 00:50:57;;;;;;;9.23;8.03;;;5.20;69.40;;;;;;5045653;28;20239;-88
2021/03/24 00:53:23;;;;;;;8.70;7.80;;;5.20;70.00;;;;;;5048317;28;20219;-88
2021/03/24 00:55:49;;;;;;;9.00;7.47;;;5.10;69.40;;;;;;5043955;28;20607;-88
2021/03/24 00:58:20;;;;;;;10.07;8.13;;;5.10;69.60;;;;;;5046356;28;20199;-89
2021/03/24 01:00:47;;;;;;;8.67;7.33;;;5.00;69.70;;;;;;5046609;28;20204;-88
2021/03/24 01:03:14;;;;;;;8.47;7.57;;;5.10;69.60;;;;;;5045255;28;20191;-90
2021/03/24 01:05:45;;;;;;;9.53;7.97;;;5.00;69.50;;;;;;5043484;28;20207;-90
2021/03/24 01:08:13;;;;;;;10.73;7.93;;;5.00;69.50;;;;;;5035742;28;20180;-90
2021/03/24 01:10:40;;;;;;;8.23;7.27;;;4.90;69.80;;;;;;5035108;28;20215;-90
2021/03/24 01:13:08;;;;;;;8.43;7.63;;;4.90;70.40;;;;;;5035834;28;20208;-90
2021/03/24 01:15:34;;;;;;;9.17;8.20;;;4.90;70.40;;;;;;5034778;28;20196;-90
2021/03/24 01:18:00;;;;;;;8.90;8.00;;;4.80;70.40;;;;;;5034969;28;20527;-90
2021/03/24 01:20:30;;;;;;;10.13;7.83;;;4.90;70.70;;;;;;5035264;28;20247;-90
2021/03/24 01:22:56;;;;;;;9.03;7.93;;;4.90;70.00;;;;;;5033458;28;20398;-89
2021/03/24 01:25:23;;;;;;;9.67;8.63;;;4.80;70.40;;;;;;5034579;28;20212;-90
2021/03/24 01:27:50;;;;;;;9.23;8.33;;;4.80;70.40;;;;;;5033473;28;20732;-90
2021/03/24 01:30:18;;;;;;;10.20;9.17;;;4.80;69.80;;;;;;5035896;28;20193;-90
2021/03/24 01:32:45;;;;;;;10.57;9.27;;;4.80;70.00;;;;;;5034660;28;20193;-90
2021/03/24 01:35:11;;;;;;;10.17;8.83;;;4.70;70.00;;;;;;5033766;28;20185;-90
2021/03/24 01:37:39;;;;;;;10.47;9.13;;;4.60;70.70;;;;;;5033423;28;20219;-89
2021/03/24 01:40:07;;;;;;;10.03;8.33;;;4.60;70.40;;;;;;5034784;28;20185;-90
2021/03/24 01:42:33;;;;;;;9.97;8.20;;;4.60;70.70;;;;;;5035249;28;20223;-89
2021/03/24 01:44:59;;;;;;;8.93;8.03;;;4.60;70.60;;;;;;5046020;28;20208;-90
2021/03/24 01:47:25;;;;;;;9.33;8.43;;;4.70;70.50;;;;;;5056306;28;20188;-90
2021/03/24 01:49:50;;;;;;;12.43;9.10;;;4.70;70.20;;;;;;5039329;28;20181;-90
2021/03/24 01:52:17;;;;;;;12.23;9.17;;;4.60;70.50;;;;;;5038087;28;20222;-89
2021/03/24 01:54:43;;;;;;;11.03;9.87;;;4.60;70.40;;;;;;5052794;28;20199;-89
2021/03/24 01:57:27;;;;;;;10.20;9.20;;;4.60;70.60;;;;;;5051337;28;20189;-89
2021/03/24 01:59:54;;;;;;;9.87;8.87;;;4.50;70.80;;;;;;5043531;28;20270;-89
2021/03/24 02:02:25;;;;;;;10.63;9.20;;;4.50;71.00;;;;;;5054873;28;20228;-89
2021/03/24 02:04:51;;;;;;;11.07;9.53;;;4.50;71.00;;;;;;5053615;28;20354;-91
2021/03/24 02:07:25;;;;;;;10.00;9.00;;;4.50;70.90;;;;;;5053133;28;20180;-90
2021/03/24 02:10:07;;;;;;;9.93;8.63;;;4.50;70.80;;;;;;5035173;28;20161;-90
2021/03/24 02:12:53;;;;;;;11.07;9.47;;;4.50;70.80;;;;;;5033773;28;20667;-90
2021/03/24 02:15:29;;;;;;;10.17;9.07;;;4.50;71.10;;;;;;5034688;28;20173;-90
2021/03/24 02:17:56;;;;;;;9.63;8.63;;;4.40;71.10;;;;;;5035350;28;20229;-90
2021/03/24 02:20:34;;;;;;;11.47;9.30;;;4.50;71.10;;;;;;5034995;28;20191;-90
2021/03/24 02:23:16;;;;;;;10.83;9.70;;;4.50;70.90;;;;;;5035213;28;20169;-90
2021/03/24 02:25:51;;;;;;;10.53;9.40;;;4.40;70.90;;;;;;5035043;28;20201;-90
2021/03/24 02:28:18;;;;;;;10.07;8.70;;;4.30;71.10;;;;;;5034967;28;20660;-90
2021/03/24 02:30:47;;;;;;;13.60;9.77;;;4.30;71.70;;;;;;5033375;28;20200;-90
2021/03/24 02:33:29;;;;;;;10.33;8.60;;;4.30;71.30;;;;;;5034994;28;20181;-90
2021/03/24 02:36:01;;;;;;;10.03;9.00;;;4.40;71.10;;;;;;5033303;28;20181;-90
2021/03/24 02:38:28;;;;;;;9.77;8.87;;;4.40;70.90;;;;;;5034260;28;20230;-90
2021/03/24 02:40:55;;;;;;;10.30;8.53;;;4.30;71.30;;;;;;5033868;28;20247;-90
2021/03/24 02:43:22;;;;;;;9.53;8.60;;;4.30;71.20;;;;;;5033850;28;20259;-90
2021/03/24 02:45:49;;;;;;;9.47;8.57;;;4.30;70.70;;;;;;5034646;28;20205;-90
2021/03/24 02:48:36;;;;;;;13.03;10.10;;;4.30;70.80;;;;;;5033302;28;20649;-90
2021/03/24 02:51:06;;;;;;;11.20;9.23;;;4.30;71.10;;;;;;5032904;28;20208;-90
2021/03/24 02:53:34;;;;;;;9.53;8.53;;;4.30;71.60;;;;;;5053342;28;20678;-90
2021/03/24 02:56:04;;;;;;;9.87;8.87;;;4.30;71.40;;;;;;5053863;28;20560;-90
2021/03/24 02:58:30;;;;;;;11.40;9.57;;;4.20;71.00;;;;;;5052878;28;20210;-90
2021/03/24 03:00:57;;;;;;;9.27;7.87;;;4.20;71.20;;;;;;5054399;28;20204;-90
2021/03/24 03:03:28;;;;;;;11.30;8.93;;;4.20;70.90;;;;;;5050709;28;20197;-90
2021/03/24 03:05:58;;;;;;;10.07;8.87;;;4.20;71.00;;;;;;5053736;28;20188;-90
2021/03/24 03:09:00;;;;;;;12.93;8.93;;;4.20;71.40;;;;;;5052807;28;20195;-90
2021/03/24 03:11:31;;;;;;;10.30;8.93;;;4.10;71.70;;;;;;5021502;28;20212;-90
2021/03/24 03:14:06;;;;;;;11.10;9.33;;;4.20;71.40;;;;;;5054301;28;20258;-89
2021/03/24 03:16:43;;;;;;;9.33;8.23;;;4.10;71.00;;;;;;5044281;28;20172;-89
2021/03/24 03:19:18;;;;;;;10.10;9.10;;;4.10;71.50;;;;;;5036312;28;20649;-90
2021/03/24 03:21:58;;;;;;;10.57;9.47;;;4.10;71.50;;;;;;5037978;28;20200;-90
2021/03/24 03:24:29;;;;;;;11.07;8.60;;;4.10;71.40;;;;;;5038545;28;20252;-90
2021/03/24 03:26:57;;;;;;;9.57;8.23;;;4.10;71.50;;;;;;5037429;28;20526;-89
2021/03/24 03:29:24;;;;;;;9.90;8.80;;;4.00;71.50;;;;;;5037803;28;20615;-89
2021/03/24 03:31:52;;;;;;;12.77;8.83;;;4.00;71.20;;;;;;5037992;28;20196;-89
2021/03/24 03:34:23;;;;;;;9.50;8.50;;;4.00;71.60;;;;;;5038662;28;20207;-91
2021/03/24 03:36:53;;;;;;;9.57;8.53;;;4.00;71.80;;;;;;5037492;28;20315;-90
2021/03/24 03:39:22;;;;;;;9.93;8.40;;;3.90;71.80;;;;;;5047585;28;20571;-90
2021/03/24 03:41:48;;;;;;;9.07;8.17;;;3.70;70.80;;;;;;5055510;28;20242;-90
2021/03/24 03:44:15;;;;;;;9.27;8.37;;;3.60;73.00;;;;;;5056588;28;20656;-90
2021/03/24 03:46:49;;;;;;;9.07;8.17;;;3.60;72.50;;;;;;5057428;28;20196;-89
2021/03/24 03:49:15;;;;;;;12.50;8.53;;;3.60;73.10;;;;;;5056112;28;20184;-90
2021/03/24 03:52:01;;;;;;;9.27;8.27;;;3.60;73.20;;;;;;5037790;28;20205;-90
2021/03/24 03:54:47;;;;;;;10.10;8.83;;;3.60;72.90;;;;;;5037860;28;20168;-90
2021/03/24 03:57:26;;;;;;;10.80;8.70;;;3.60;72.80;;;;;;5036954;28;20248;-89
2021/03/24 04:00:11;;;;;;;10.30;8.83;;;3.60;72.50;;;;;;5036796;28;20544;-90
2021/03/24 04:02:43;;;;;;;11.53;8.80;;;3.70;72.30;;;;;;5055136;28;20203;-92
2021/03/24 04:05:16;;;;;;;11.60;9.50;;;3.70;72.90;;;;;;5057560;28;20192;-91
2021/03/24 04:07:47;;;;;;;12.10;10.43;;;3.70;72.60;;;;;;5055858;28;20212;-91
2021/03/24 04:10:13;;;;;;;11.80;10.23;;;3.80;74.20;;;;;;5056061;28;20191;-91
2021/03/24 04:12:40;;;;;;;11.83;10.30;;;3.80;73.70;;;;;;5039841;28;20204;-91
2021/03/24 04:15:14;;;;;;;14.43;10.30;;;3.80;73.60;;;;;;5051437;28;20185;-90
2021/03/24 04:17:54;;;;;;;13.43;10.47;;;3.80;73.70;;;;;;5035255;28;20585;-91
2021/03/24 04:20:23;;;;;;;13.00;9.83;;;3.80;74.20;;;;;;5035933;28;20227;-91
2021/03/24 04:22:52;;;;;;;11.33;9.77;;;3.80;73.90;;;;;;5037374;28;20227;-90
2021/03/24 04:25:31;;;;;;;11.27;9.93;;;3.80;73.80;;;;;;5037026;28;20205;-90
2021/03/24 04:28:01;;;;;;;11.63;10.43;;;3.80;73.00;;;;;;5035232;28;20173;-90
2021/03/24 04:30:35;;;;;;;13.87;8.97;;;3.80;73.20;;;;;;5018511;28;20276;-92
2021/03/24 04:33:01;;;;;;;9.30;8.10;;;3.80;72.40;;;;;;5037841;28;20214;-91
2021/03/24 04:35:27;;;;;;;10.17;9.07;;;3.80;72.30;;;;;;5036812;28;20193;-91
2021/03/24 04:37:57;;;;;;;12.43;9.03;;;3.70;71.90;;;;;;5018665;28;20223;-90
2021/03/24 04:40:51;;;;;;;10.57;8.57;;;3.70;72.00;;;;;;5045510;28;20184;-90
2021/03/24 04:43:22;;;;;;;9.83;8.03;;;3.70;72.30;;;;;;5043398;28;20223;-91
2021/03/24 04:46:03;;;;;;;11.20;9.17;;;3.60;72.10;;;;;;5056643;28;20261;-91
2021/03/24 04:48:40;;;;;;;8.83;7.93;;;3.70;73.10;;;;;;5054864;28;20168;-91
2021/03/24 04:51:12;;;;;;;8.80;7.83;;;3.70;72.90;;;;;;5057220;28;20595;-91
2021/03/24 04:53:44;;;;;;;10.10;8.17;;;3.70;72.10;;;;;;5057765;28;20187;-91
2021/03/24 04:56:13;;;;;;;8.93;8.03;;;3.50;72.30;;;;;;5055375;28;20187;-90
2021/03/24 04:58:42;;;;;;;9.10;7.17;;;3.60;73.00;;;;;;5056960;28;20184;-91
2021/03/24 05:01:12;;;;;;;11.13;7.93;;;3.60;73.70;;;;;;5056378;28;20204;-90
2021/03/24 05:03:42;;;;;;;11.97;8.47;;;3.60;73.70;;;;;;5056861;28;20526;-91
2021/03/24 05:06:35;;;;;;;8.80;7.53;;;3.60;72.30;;;;;;5064348;28;20287;-90
2021/03/24 05:09:04;;;;;;;9.43;7.00;;;3.60;72.80;;;;;;5067432;28;20180;-91
2021/03/24 05:11:37;;;;;;;9.77;8.17;;;3.60;73.10;;;;;;5058140;28;20203;-90
2021/03/24 05:14:24;;;;;;;8.20;7.40;;;3.60;72.30;;;;;;5057878;28;20183;-91
2021/03/24 05:16:58;;;;;;;7.90;6.97;;;3.50;72.40;;;;;;5059690;28;20273;-91
2021/03/24 05:19:28;;;;;;;10.53;7.33;;;3.60;72.20;;;;;;5057499;28;20172;-90
2021/03/24 05:22:19;;;;;;;8.90;6.90;;;3.50;72.30;;;;;;5054659;28;20327;-91
2021/03/24 05:24:47;;;;;;;7.87;7.00;;;3.50;72.10;;;;;;5047639;28;20846;-90
2021/03/24 05:27:18;;;;;;;10.27;8.00;;;3.40;72.40;;;;;;5055383;28;20180;-90
2021/03/24 05:29:51;;;;;;;9.43;7.87;;;3.40;72.20;;;;;;5055856;28;20172;-90
2021/03/24 05:32:46;;;;;;;8.83;7.93;;;3.40;71.90;;;;;;5045195;28;20201;-91
2021/03/24 05:35:44;;;;;;;9.73;8.03;;;3.30;72.50;;;;;;5041120;28;20667;-91
2021/03/24 05:38:30;;;;;;;9.63;8.10;;;3.30;72.90;;;;;;5033385;28;20189;-91
2021/03/24 05:41:17;;;;;;;9.20;8.07;;;3.30;72.70;;;;;;5035284;28;20275;-91
2021/03/24 05:44:01;;;;;;;12.03;8.17;;;3.30;72.60;;;;;;5036833;28;20197;-91
2021/03/24 05:46:45;;;;;;;10.10;8.97;;;3.30;72.90;;;;;;5043238;28;20235;-91
2021/03/24 05:49:16;;;;;;;11.30;8.77;;;3.30;72.90;;;;;;5035080;28;20176;-91
2021/03/24 05:52:03;;;;;;;8.97;7.60;;;3.40;72.80;;;;;;5034215;28;20200;-90
2021/03/24 05:54:49;;;;;;;12.17;8.37;;;3.40;72.20;;;;;;5035105;28;20169;-91
2021/03/24 05:57:48;;;;;;;14.70;9.63;;;3.20;72.00;;;;;;5034276;28;20173;-91
2021/03/24 06:00:19;;;;;;;14.83;9.37;;;3.20;73.50;;;;;;5035612;28;20180;-92
2021/03/24 06:03:02;;;;;;;14.93;12.67;;;3.20;73.40;;;;;;5049722;28;20220;-91
2021/03/24 06:05:34;;;;;;;13.03;11.60;;;3.20;74.00;;;;;;5034576;28;20615;-91
2021/03/24 06:08:41;;;;;;;13.00;11.70;;;3.20;73.40;;;;;;5033803;28;20211;-90
2021/03/24 06:11:18;;;;;;;11.13;9.13;;;3.30;73.60;;;;;;5036356;28;20207;-92
2021/03/24 06:14:05;;;;;;;10.73;9.47;;;3.30;74.60;;;;;;5035650;28;20165;-91
2021/03/24 06:16:55;;;;;;;12.00;8.60;;;3.30;74.50;;;;;;5034028;28;20181;-91
2021/03/24 06:19:37;;;;;;;9.70;7.13;;;3.40;73.80;;;;;;5035319;28;20245;-85
2021/03/24 06:22:35;;;;;;;11.23;8.33;;;3.30;73.10;;;;;;5039953;28;20279;-85
2021/03/24 06:25:09;;;;;;;9.43;7.77;;;3.20;73.70;;;;;;5020860;28;20212;-86
2021/03/24 06:28:03;;;;;;;8.17;7.37;;;3.10;75.10;;;;;;5051914;28;20207;-87
2021/03/24 06:30:54;;;;;;;11.90;8.07;;;3.20;75.90;;;;;;5054332;28;20728;-86
2021/03/24 06:33:44;;;;;;;9.20;8.20;;;3.20;75.50;;;;;;5054593;28;20231;-86
2021/03/24 06:36:47;;;;;;;9.67;8.10;;;3.30;75.10;;;;;;5053928;28;20266;-87
2021/03/24 06:39:37;;;;;;;11.77;8.37;;;3.40;75.60;;;;;;5054283;28;20176;-86
2021/03/24 06:42:30;;;;;;;8.63;7.73;;;3.40;75.60;;;;;;5052591;28;20222;-87
2021/03/24 06:45:23;;;;;;;9.90;8.63;;;3.40;75.70;;;;;;5034474;28;20183;-86
2021/03/24 06:48:21;;;;;;;10.50;9.23;;;3.50;75.70;;;;;;5033567;28;20169;-86
2021/03/24 06:51:15;;;;;;;11.60;10.40;;;3.60;75.40;;;;;;5032545;28;20216;-86
2021/03/24 06:54:11;;;;;;;12.13;9.03;;;3.70;75.50;;;;;;5044362;28;20181;-86
2021/03/24 06:57:14;;;;;;;12.07;9.97;;;3.70;76.10;;;;;;5037562;28;20172;-87
2021/03/24 07:00:17;;;;;;;13.70;10.20;;;3.80;76.70;;;;;;5043406;28;20240;-87
2021/03/24 07:03:01;;;;;;;9.23;8.17;;;3.60;78.10;;;;;;5048900;28;20277;-86
2021/03/24 07:06:01;;;;;;;11.40;8.60;;;3.60;78.50;;;;;;5051855;28;20675;-88
2021/03/24 07:08:48;;;;;;;10.83;8.37;;;3.40;79.90;;;;;;5038227;28;20661;-88
2021/03/24 07:11:41;;;;;;;8.60;7.70;;;3.40;80.50;;;;;;5033019;28;20201;-88
2021/03/24 07:14:15;;;;;;;10.13;7.80;;;3.50;80.40;;;;;;5039828;28;20203;-87
2021/03/24 07:16:52;;;;;;;9.97;8.13;;;3.60;80.20;;;;;;5039989;28;20536;-87
2021/03/24 07:19:37;;;;;;;9.87;8.17;;;3.40;82.20;;;;;;5044557;28;20187;-87
2021/03/24 07:22:30;;;;;;;10.50;8.00;;;3.50;81.80;;;;;;5044708;28;20201;-87
2021/03/24 07:24:59;;;;;;;10.67;8.07;;;3.40;82.40;;;;;;5047466;28;20246;-87
2021/03/24 07:27:30;;;;;;;11.60;8.93;;;3.60;82.20;;;;;;5049608;28;20202;-89
2021/03/24 07:30:22;;;;;;;10.60;8.70;;;3.60;82.80;;;;;;5051646;28;20177;-87
2021/03/24 07:33:02;;;;;;;12.20;7.90;;;3.60;83.30;;;;;;5044305;28;20219;-88
2021/03/24 07:35:39;;;;;;;11.20;8.13;;;3.50;84.00;;;;;;5031719;28;20177;-88
2021/03/24 07:38:26;;;;;;;8.53;7.43;;;3.60;84.00;;;;;;5045504;28;20188;-88
2021/03/24 07:41:19;;;;;;;10.47;8.03;;;3.80;83.30;;;;;;5052276;28;20204;-86
2021/03/24 07:44:08;;;;;;;9.67;8.67;;;3.90;82.40;;;;;;5060549;28;20630;-87
2021/03/24 07:46:52;;;;;;;11.23;9.33;;;4.10;82.50;;;;;;5046411;28;20196;-88
2021/03/24 07:49:20;;;;;;;10.97;8.77;;;4.20;81.90;;;;;;5049909;28;20185;-86
2021/03/24 07:52:10;;;;;;;12.43;9.80;;;4.30;81.40;;;;;;5048166;28;20223;-86
2021/03/24 07:54:36;;;;;;;17.97;10.13;;;4.50;81.00;;;;;;5047131;28;20180;-86
2021/03/24 07:57:14;;;;;;;11.53;9.60;;;4.60;81.10;;;;;;5052618;28;20640;-86
2021/03/24 08:00:19;;;;;;;11.50;10.40;;;4.80;80.30;;;;;;5055754;28;20187;-86
2021/03/24 08:02:54;;;;;;;13.53;11.30;;;4.80;81.20;;;;;;5053691;28;20611;-86
2021/03/24 08:05:33;;;;;;;12.80;11.30;;;4.80;80.80;;;;;;5056049;28;20261;-86
2021/03/24 08:08:14;;;;;;;14.87;12.27;;;5.00;80.20;;;;;;5054528;28;20176;-86
2021/03/24 08:10:52;;;;;;;14.03;11.83;;;5.00;80.70;;;;;;5057627;28;20258;-86
2021/03/24 08:13:43;;;;;;;14.53;11.93;;;5.10;80.50;;;;;;5053727;28;20199;-86
2021/03/24 08:16:39;;;;;;;15.57;12.13;;;5.20;80.40;;;;;;5054593;28;20215;-86
2021/03/24 08:19:24;;;;;;;13.67;11.13;;;5.20;80.80;;;;;;5053243;28;20215;-86
2021/03/24 08:22:18;;;;;;;13.20;11.80;;;5.30;81.00;;;;;;5048742;28;20787;-86
2021/03/24 08:24:53;;;;;;;14.27;12.63;;;5.30;82.10;;;;;;5044456;28;20196;-87
2021/03/24 08:27:22;;;;;;;12.23;10.93;;;5.40;80.80;;;;;;5048304;28;20194;-86
2021/03/24 08:30:06;;;;;;;13.13;11.73;;;5.50;79.60;;;;;;5059962;28;20204;-86
2021/03/24 08:32:55;;;;;;;17.80;12.83;;;5.60;80.50;;;;;;5056956;28;20208;-86
2021/03/24 08:35:51;;;;;;;14.57;12.60;;;5.60;80.70;;;;;;5056095;28;20191;-86
2021/03/24 08:38:39;;;;;;;15.87;11.37;;;5.80;79.50;;;;;;5054982;28;20173;-86
2021/03/24 08:41:13;;;;;;;13.83;11.50;;;5.70;80.00;;;;;;5053348;28;20858;-86
2021/03/24 08:43:59;;;;;;;14.33;12.63;;;5.90;79.20;;;;;;5054096;28;20682;-87
2021/03/24 08:46:57;;;;;;;14.70;12.33;;;6.10;79.00;;;;;;5050503;28;20207;-86
2021/03/24 08:49:34;;;;;;;16.70;14.33;;;6.30;77.90;;;;;;5034512;28;20295;-86
2021/03/24 08:52:04;;;;;;;13.70;12.17;;;6.40;77.30;;;;;;5054017;28;20303;-87
2021/03/24 08:54:50;;;;;;;13.23;11.40;;;6.80;77.30;;;;;;5056115;28;20192;-86
2021/03/24 08:57:53;;;;;;;13.37;12.00;;;6.80;76.90;;;;;;5054633;28;20188;-87
2021/03/24 09:00:36;;;;;;;13.73;12.33;;;7.10;75.80;;;;;;5052587;28;20300;-86
2021/03/24 09:03:26;;;;;;;19.53;13.13;;;7.10;74.70;;;;;;5052712;28;20604;-87
2021/03/24 09:06:29;;;;;;;12.07;10.93;;;7.30;73.00;;;;;;5051261;28;20207;-86
2021/03/24 09:09:27;;;;;;;12.00;10.80;;;7.40;72.60;;;;;;5052211;28;20226;-87
2021/03/24 09:11:59;;;;;;;13.63;11.17;;;7.50;72.40;;;;;;5053246;28;20208;-87
2021/03/24 09:14:42;;;;;;;14.50;12.73;;;7.60;72.30;;;;;;5055567;28;20183;-86
2021/03/24 09:17:43;;;;;;;14.03;12.33;;;7.80;72.20;;;;;;5045889;28;20215;-87
2021/03/24 09:20:30;;;;;;;16.03;12.37;;;8.00;70.80;;;;;;5049619;28;20206;-87
2021/03/24 09:23:14;;;;;;;12.97;11.67;;;8.10;71.10;;;;;;5050345;28;20195;-87
2021/03/24 09:25:55;;;;;;;15.30;13.70;;;8.40;70.10;;;;;;5053387;28;20266;-87
2021/03/24 09:28:39;;;;;;;20.03;14.13;;;8.70;68.50;;;;;;5054571;28;20267;-87
2021/03/24 09:31:25;;;;;;;16.53;14.27;;;8.70;68.60;;;;;;5051112;28;20569;-86
2021/03/24 09:34:03;;;;;;;15.67;13.93;;;8.70;69.40;;;;;;5050764;28;20191;-87
2021/03/24 09:37:03;;;;;;;16.60;14.13;;;8.60;68.70;;;;;;5046202;28;20758;-87
2021/03/24 09:39:41;;;;;;;14.93;13.33;;;8.90;68.20;;;;;;5049966;28;20601;-87
2021/03/24 09:42:31;;;;;;;18.93;14.23;;;9.20;67.00;;;;;;5052010;28;20832;-87
2021/03/24 09:45:06;;;;;;;14.37;12.87;;;9.40;65.50;;;;;;5045585;28;20676;-87
2021/03/24 09:47:40;;;;;;;14.30;12.80;;;9.70;65.10;;;;;;5041988;28;20181;-87
2021/03/24 09:50:19;;;;;;;14.87;13.27;;;10.00;64.40;;;;;;5043637;28;20285;-86
2021/03/24 09:53:09;;;;;;;13.87;12.47;;;10.10;64.20;;;;;;5042344;28;20553;-87
2021/03/24 09:55:40;;;;;;;13.57;12.10;;;10.20;61.80;;;;;;5042629;28;20209;-87
2021/03/24 09:58:24;;;;;;;15.00;13.47;;;10.30;62.50;;;;;;5042106;28;20201;-87
2021/03/24 10:01:08;;;;;;;15.83;13.33;;;10.30;62.90;;;;;;5052387;28;20614;-86
2021/03/24 10:03:54;;;;;;;16.60;11.50;;;10.30;63.10;;;;;;5036944;28;20235;-87
2021/03/24 10:06:50;;;;;;;14.37;12.93;;;10.30;62.60;;;;;;5049687;28;20309;-87
2021/03/24 10:09:24;;;;;;;13.37;12.03;;;10.50;62.80;;;;;;5051231;28;20263;-86
2021/03/24 10:12:21;;;;;;;15.33;12.70;;;10.70;62.40;;;;;;5050998;28;20682;-87
2021/03/24 10:15:05;;;;;;;13.70;12.30;;;11.20;60.20;;;;;;5051085;28;20176;-87
2021/03/24 10:18:01;;;;;;;14.93;13.33;;;11.50;58.40;;;;;;5049835;28;20188;-86
2021/03/24 10:20:39;;;;;;;14.13;12.63;;;11.70;57.80;;;;;;5046742;28;20223;-85
2021/03/24 10:23:20;;;;;;;14.40;12.90;;;11.80;57.10;;;;;;5050348;28;20184;-86
2021/03/24 10:25:53;;;;;;;13.03;11.73;;;11.90;57.60;;;;;;5050182;28;20219;-86
2021/03/24 10:28:22;;;;;;;13.33;12.03;;;12.10;56.20;;;;;;5065757;28;20227;-86
2021/03/24 10:31:06;;;;;;;12.80;11.50;;;12.30;55.00;;;;;;5059075;28;20221;-85
2021/03/24 10:33:37;;;;;;;14.57;12.33;;;12.30;54.10;;;;;;5048955;28;20189;-86
2021/03/24 10:36:26;;;;;;;13.70;12.40;;;12.10;54.50;;;;;;5051170;28;20185;-86
2021/03/24 10:39:13;;;;;;;12.83;11.63;;;12.20;54.50;;;;;;5051556;28;20645;-84
2021/03/24 10:41:44;;;;;;;12.17;11.07;;;12.60;53.70;;;;;;5051209;28;20231;-86
2021/03/24 10:44:16;;;;;;;13.17;11.73;;;12.80;53.00;;;;;;5052155;28;20187;-85
2021/03/24 10:46:48;;;;;;;12.53;10.67;;;13.10;51.80;;;;;;5047819;28;20227;-85
2021/03/24 10:49:23;;;;;;;12.77;11.47;;;13.50;50.40;;;;;;5055521;28;20201;-85
2021/03/24 10:52:00;;;;;;;13.00;11.40;;;13.30;50.20;;;;;;5053567;28;20215;-87
2021/03/24 10:54:29;;;;;;;11.87;10.67;;;13.60;50.20;;;;;;5045829;28;20260;-83
2021/03/24 10:57:27;;;;;;;13.13;11.67;;;13.80;47.20;;;;;;5047684;28;20660;-84
2021/03/24 11:00:45;;;;;;;12.57;10.53;;;13.90;47.60;;;;;;5028211;28;20238;-87
2021/03/24 11:03:29;;;;;;;13.90;11.30;;;13.60;48.10;;;;;;5037399;28;20203;-87
2021/03/24 11:06:05;;;;;;;13.87;11.73;;;13.60;48.90;;;;;;5048498;28;20208;-85
2021/03/24 11:08:40;;;;;;;11.47;10.40;;;14.00;49.30;;;;;;5048829;28;20187;-84
2021/03/24 11:11:17;;;;;;;12.10;10.90;;;13.90;48.00;;;;;;5051279;28;20572;-85
2021/03/24 11:14:06;;;;;;;13.30;11.90;;;14.20;49.00;;;;;;5051554;28;20594;-85
2021/03/24 11:16:42;;;;;;;14.20;12.00;;;14.50;48.10;;;;;;5048173;28;20199;-85
2021/03/24 11:19:31;;;;;;;13.10;11.80;;;14.90;46.30;;;;;;5049635;28;20212;-85
2021/03/24 11:22:14;;;;;;;17.23;12.90;;;14.90;46.00;;;;;;5040888;28;20290;-87
2021/03/24 11:25:01;;;;;;;14.40;13.00;;;15.00;46.20;;;;;;5050495;28;20189;-85
2021/03/24 11:27:46;;;;;;;17.10;15.40;;;14.80;45.50;;;;;;5048579;28;20184;-87
2021/03/24 11:30:20;;;;;;;13.57;12.00;;;14.90;45.40;;;;;;5048878;28;20177;-86
2021/03/24 11:33:15;;;;;;;13.77;12.37;;;15.00;44.80;;;;;;5051623;28;20268;-87
2021/03/24 11:35:50;;;;;;;13.87;12.23;;;15.60;43.70;;;;;;5028105;28;20257;-88
2021/03/24 11:38:30;;;;;;;14.07;12.70;;;15.20;44.40;;;;;;5052910;28;20180;-88
2021/03/24 11:41:07;;;;;;;14.53;12.97;;;15.70;43.30;;;;;;5056041;28;20210;-87
2021/03/24 11:43:36;;;;;;;16.60;12.90;;;16.20;41.60;;;;;;5050476;28;20735;-87
2021/03/24 11:46:22;;;;;;;14.60;13.10;;;16.20;41.10;;;;;;5055808;28;20211;-87
2021/03/24 11:49:02;;;;;;;14.07;12.57;;;16.30;42.20;;;;;;5051873;28;20191;-87
2021/03/24 11:51:36;;;;;;;13.67;12.17;;;16.50;40.10;;;;;;5057648;28;20242;-87
2021/03/24 11:54:15;;;;;;;13.03;11.83;;;16.70;40.30;;;;;;5066795;28;20176;-87
2021/03/24 11:57:12;;;;;;;14.47;12.73;;;17.10;39.80;;;;;;5071032;28;20191;-87
2021/03/24 12:00:01;;;;;;;15.47;12.93;;;17.30;39.00;;;;;;5058456;28;20279;-86
2021/03/24 12:02:48;;;;;;;13.80;11.93;;;17.30;38.80;;;;;;5057616;28;20735;-88
2021/03/24 12:05:27;;;;;;;14.27;12.77;;;17.20;39.70;;;;;;5056593;28;20269;-87
2021/03/24 12:07:56;;;;;;;14.87;13.37;;;16.90;39.30;;;;;;5058704;28;20188;-88
2021/03/24 12:10:28;;;;;;;14.67;12.80;;;16.60;40.60;;;;;;5061561;28;20261;-88
2021/03/24 12:13:15;;;;;;;14.13;12.73;;;17.10;40.20;;;;;;5059957;28;20192;-87
2021/03/24 12:15:43;;;;;;;20.00;12.87;;;17.60;39.30;;;;;;5061573;28;20559;-87
2021/03/24 12:18:11;;;;;;;15.53;12.87;;;17.80;37.80;;;;;;5059598;28;20189;-88
2021/03/24 12:20:48;;;;;;;13.90;12.30;;;18.20;37.30;;;;;;5054571;28;20191;-87
2021/03/24 12:23:15;;;;;;;13.40;12.00;;;18.10;36.40;;;;;;5058130;28;20196;-87
2021/03/24 12:25:47;;;;;;;17.60;13.27;;;18.40;36.00;;;;;;5060267;28;20216;-87
2021/03/24 12:28:22;;;;;;;13.63;12.13;;;18.40;36.50;;;;;;5071592;28;20177;-88
2021/03/24 12:30:50;;;;;;;15.43;13.30;;;18.20;37.70;;;;;;5059150;28;20543;-87
2021/03/24 12:33:16;;;;;;;13.53;12.20;;;18.70;36.50;;;;;;5054422;28;20211;-88
2021/03/24 12:35:47;;;;;;;14.30;12.83;;;18.60;37.50;;;;;;5059298;28;20186;-88
2021/03/24 12:38:17;;;;;;;15.15;12.25;;;18.80;35.70;;;;;;5059210;28;20178;-88
2021/03/24 12:41:09;;;;;;;13.60;12.20;;;18.70;35.50;;;;;;5059442;28;20667;-87
2021/03/24 12:43:39;;;;;;;13.38;12.00;;;18.70;35.60;;;;;;5058122;28;20204;-88
2021/03/24 12:46:21;;;;;;;14.25;12.63;;;19.10;35.80;;;;;;5058448;28;20701;-87
2021/03/24 12:48:56;;;;;;;17.85;13.38;;;19.10;35.10;;;;;;5052465;28;20219;-87
2021/03/24 12:51:36;;;;;;;13.48;12.07;;;19.30;36.00;;;;;;5057888;28;20745;-87
2021/03/24 12:54:07;;;;;;;13.70;12.40;;;18.80;35.60;;;;;;5059575;28;20240;-88
2021/03/24 12:56:51;;;;;;;16.63;12.48;;;19.10;35.50;;;;;;5059852;28;21525;-88
2021/03/24 12:59:31;;;;;;;13.25;11.95;;;19.20;34.80;;;;;;5056195;28;20194;-88
2021/03/24 13:02:38;;;;;;;18.58;12.70;;;19.60;34.20;;;;;;5058433;28;20204;-88
2021/03/24 13:05:13;;;;;;;12.32;11.15;;;19.80;34.70;;;;;;5041203;28;20653;-87
2021/03/24 13:07:56;;;;;;;13.57;12.25;;;20.20;33.70;;;;;;5059396;28;20283;-88
2021/03/24 13:10:21;;;;;;;13.23;11.73;;;20.20;33.00;;;;;;5056633;28;20184;-88
2021/03/24 13:13:05;;;;;;;12.13;10.38;;;20.20;32.80;;;;;;5058712;28;20207;-87
2021/03/24 13:15:52;;;;;;;12.25;10.60;;;20.10;31.50;;;;;;5058283;28;20278;-88
2021/03/24 13:18:30;;;;;;;10.85;9.77;;;18.70;33.40;;;;;;5054791;28;20240;-87
2021/03/24 13:21:23;;;;;;;11.48;10.18;;;19.00;32.90;;;;;;5051778;28;20223;-87
2021/03/24 13:24:14;;;;;;;12.57;10.80;;;18.90;33.60;;;;;;5047038;28;20191;-85
2021/03/24 13:26:40;;;;;;;12.45;11.25;;;19.40;33.00;;;;;;5055252;28;20204;-86
2021/03/24 13:29:18;;;;;;;12.55;11.32;;;20.50;31.70;;;;;;5054327;28;20271;-84
2021/03/24 13:32:10;;;;;;;15.07;10.85;;;20.70;31.50;;;;;;5051480;28;20207;-84
2021/03/24 13:34:49;;;;;;;10.57;8.85;;;20.90;30.70;;;;;;5048926;28;20622;-85
2021/03/24 13:37:19;;;;;;;10.00;9.02;;;20.80;29.00;;;;;;5053658;28;20188;-85
2021/03/24 13:40:04;;;;;;;10.80;9.43;;;20.20;29.30;;;;;;5053191;28;20194;-86